Time;durP1;ratioP1;P1;durP2;ratioP2;P2;SDS_P1;SDS_P2;PMS_P1;PMS_P2;Temp;Humidity;BMP_temperature;BMP_pressure;BME280_temperature;BME280_humidity;BME280_pressure;Samples;Min_cycle;Max_cycle;Signal;HPM_P1;HPM_P2
2023/12/30 00:00:32;;;;;;;2.25;1.85;;;23.70;44.00;;;;;;6275872;27;82752;-59
2023/12/30 00:03:32;;;;;;;2.05;1.70;;;23.70;44.10;;;;;;6275657;27;80978;-58
2023/12/30 00:06:34;;;;;;;3.50;1.90;;;23.70;44.00;;;;;;6258508;27;80915;-59
2023/12/30 00:09:34;;;;;;;2.05;1.85;;;23.70;44.30;;;;;;6276586;27;80750;-59
2023/12/30 00:12:35;;;;;;;3.20;2.13;;;23.70;44.00;;;;;;6275835;27;80950;-59
2023/12/30 00:15:35;;;;;;;2.13;1.60;;;23.70;43.90;;;;;;6276132;27;80902;-59
2023/12/30 00:18:36;;;;;;;2.33;1.80;;;23.70;43.90;;;;;;6276273;27;81419;-59
2023/12/30 00:21:36;;;;;;;3.08;1.75;;;23.70;43.80;;;;;;6276615;27;80963;-58
2023/12/30 00:24:37;;;;;;;1.95;1.73;;;23.70;43.90;;;;;;6276112;27;80500;-59
2023/12/30 00:27:37;;;;;;;2.80;1.63;;;23.70;43.80;;;;;;6275533;27;80566;-58
2023/12/30 00:30:38;;;;;;;8.15;3.35;;;23.70;43.90;;;;;;6257291;27;83685;-59
2023/12/30 00:33:38;;;;;;;3.45;1.90;;;23.70;43.70;;;;;;6274963;27;80959;-58
2023/12/30 00:36:40;;;;;;;2.80;2.05;;;23.70;43.70;;;;;;6274321;27;81276;-60
2023/12/30 00:39:41;;;;;;;1.90;1.60;;;23.70;43.60;;;;;;6258582;27;82022;-59
2023/12/30 00:42:41;;;;;;;2.97;2.13;;;23.70;43.70;;;;;;6256553;27;82509;-60
2023/12/30 00:45:42;;;;;;;2.88;2.03;;;23.70;43.70;;;;;;6257267;27;82320;-49
2023/12/30 00:48:42;;;;;;;3.50;1.63;;;23.70;43.60;;;;;;6260251;27;81127;-51
2023/12/30 00:51:43;;;;;;;2.28;1.70;;;23.70;43.60;;;;;;6274466;27;82537;-47
2023/12/30 00:54:43;;;;;;;2.63;1.90;;;23.70;43.60;;;;;;6274879;27;85959;-50
2023/12/30 00:57:44;;;;;;;2.20;1.80;;;23.70;43.80;;;;;;6275684;27;81431;-48
2023/12/30 01:00:44;;;;;;;2.42;1.73;;;23.70;43.70;;;;;;6257974;27;82701;-50
2023/12/30 01:03:45;;;;;;;3.60;1.52;;;23.70;43.80;;;;;;6275998;27;80362;-52
2023/12/30 01:06:45;;;;;;;3.10;1.98;;;23.70;43.90;;;;;;6274326;27;80468;-50
2023/12/30 01:09:46;;;;;;;2.25;1.70;;;23.70;43.70;;;;;;6274947;27;80586;-51
2023/12/30 01:12:46;;;;;;;2.33;1.60;;;23.70;43.70;;;;;;6274313;27;80270;-51
2023/12/30 01:15:47;;;;;;;2.75;1.75;;;23.70;43.80;;;;;;6275571;27;80973;-49
2023/12/30 01:18:47;;;;;;;2.38;1.70;;;23.70;43.70;;;;;;6273715;27;80752;-49
2023/12/30 01:21:48;;;;;;;2.58;1.88;;;23.70;43.80;;;;;;6274824;27;80897;-60
2023/12/30 01:24:49;;;;;;;1.90;1.70;;;23.70;43.90;;;;;;6257666;27;82667;-60
2023/12/30 01:27:49;;;;;;;2.30;1.30;;;23.70;43.90;;;;;;6257984;27;83425;-60
2023/12/30 01:30:49;;;;;;;2.38;1.50;;;23.70;43.90;;;;;;6275109;27;80389;-59
2023/12/30 01:33:50;;;;;;;2.83;1.60;;;23.60;44.00;;;;;;6273361;27;80489;-59
2023/12/30 01:36:51;;;;;;;3.13;1.58;;;23.60;44.10;;;;;;6255872;27;81067;-59
2023/12/30 01:39:51;;;;;;;2.45;1.50;;;23.60;44.00;;;;;;6275495;27;81165;-58
2023/12/30 01:42:52;;;;;;;2.00;1.60;;;23.60;44.00;;;;;;6273483;27;83500;-59
2023/12/30 01:45:52;;;;;;;2.03;1.60;;;23.60;44.00;;;;;;6255987;27;81404;-59
2023/12/30 01:48:53;;;;;;;1.73;1.50;;;23.60;43.90;;;;;;6274646;27;80308;-60
2023/12/30 01:51:53;;;;;;;1.92;1.65;;;23.70;44.00;;;;;;6260024;27;80432;-58
2023/12/30 01:54:54;;;;;;;2.13;1.35;;;23.60;43.90;;;;;;6274731;27;80632;-59
2023/12/30 01:57:54;;;;;;;2.63;2.20;;;23.60;43.90;;;;;;6257459;27;83483;-58
2023/12/30 02:00:55;;;;;;;3.50;1.52;;;23.60;43.90;;;;;;6261437;27;83352;-58
2023/12/30 02:03:55;;;;;;;1.88;1.50;;;23.60;43.80;;;;;;6279103;27;80613;-59
2023/12/30 02:06:56;;;;;;;2.00;1.63;;;23.60;43.80;;;;;;6279574;27;80365;-58
2023/12/30 02:09:56;;;;;;;2.67;1.67;;;23.60;43.70;;;;;;6259995;27;83217;-58
2023/12/30 02:12:57;;;;;;;2.63;1.35;;;23.60;43.70;;;;;;6277469;27;81156;-58
2023/12/30 02:15:58;;;;;;;2.03;1.70;;;23.60;43.60;;;;;;6259142;27;83424;-58
2023/12/30 02:18:59;;;;;;;2.05;1.40;;;23.60;43.70;;;;;;6260504;27;83859;-58
2023/12/30 02:22:00;;;;;;;1.52;1.40;;;23.60;43.60;;;;;;6277749;27;80761;-59
2023/12/30 02:25:00;;;;;;;2.53;1.60;;;23.70;43.70;;;;;;6278777;27;80949;-58
2023/12/30 02:28:00;;;;;;;1.92;1.30;;;23.60;43.50;;;;;;6278324;27;80642;-58
2023/12/30 02:31:01;;;;;;;1.75;1.60;;;23.60;43.50;;;;;;6270902;27;83229;-58
2023/12/30 02:34:01;;;;;;;1.80;1.48;;;23.60;43.60;;;;;;6278142;27;80797;-59
2023/12/30 02:37:02;;;;;;;1.38;1.17;;;23.60;43.60;;;;;;6276735;27;80526;-59
2023/12/30 02:40:02;;;;;;;1.58;1.30;;;23.60;43.90;;;;;;6278189;27;80613;-59
2023/12/30 02:43:03;;;;;;;2.47;1.13;;;23.60;43.50;;;;;;6277132;27;80561;-59
2023/12/30 02:46:04;;;;;;;1.63;1.45;;;23.60;43.50;;;;;;6277861;27;80601;-59
2023/12/30 02:49:05;;;;;;;1.40;1.25;;;23.70;43.70;;;;;;6258579;27;82037;-59
2023/12/30 02:52:05;;;;;;;2.10;1.50;;;23.70;43.70;;;;;;6277698;27;80747;-59
2023/12/30 02:55:06;;;;;;;2.50;1.38;;;23.60;43.70;;;;;;6278251;27;80624;-58
2023/12/30 02:58:06;;;;;;;1.52;1.30;;;23.60;43.70;;;;;;6277261;27;80770;-59
2023/12/30 03:01:07;;;;;;;1.70;1.33;;;23.60;43.80;;;;;;6276810;27;80512;-58
2023/12/30 03:04:07;;;;;;;1.63;1.33;;;23.60;43.60;;;;;;6278766;27;80872;-60
2023/12/30 03:07:08;;;;;;;2.70;1.50;;;23.60;43.80;;;;;;6277579;27;80625;-59
2023/12/30 03:10:08;;;;;;;1.73;1.45;;;23.60;43.60;;;;;;6276076;27;80620;-58
2023/12/30 03:13:09;;;;;;;1.83;1.58;;;23.60;43.70;;;;;;6276508;27;80508;-59
2023/12/30 03:16:11;;;;;;;1.65;1.38;;;23.60;43.60;;;;;;6277730;27;80366;-58
2023/12/30 03:19:11;;;;;;;1.55;1.45;;;23.60;43.60;;;;;;6276124;27;81612;-59
2023/12/30 03:22:12;;;;;;;1.85;1.45;;;23.60;43.50;;;;;;6266066;27;81503;-59
2023/12/30 03:25:12;;;;;;;1.40;1.20;;;23.60;43.80;;;;;;6263049;27;83285;-59
2023/12/30 03:28:13;;;;;;;1.98;1.35;;;23.60;43.40;;;;;;6277634;27;80301;-59
2023/12/30 03:31:13;;;;;;;2.08;1.20;;;23.60;43.40;;;;;;6257925;27;83401;-61
2023/12/30 03:34:14;;;;;;;1.52;1.30;;;23.60;43.60;;;;;;6258476;27;82102;-61
2023/12/30 03:37:14;;;;;;;1.75;1.50;;;23.60;43.30;;;;;;6275980;27;80261;-60
2023/12/30 03:40:15;;;;;;;1.65;1.33;;;23.60;43.60;;;;;;6277385;27;80156;-59
2023/12/30 03:43:15;;;;;;;1.92;1.50;;;23.60;43.10;;;;;;6257248;27;81835;-60
2023/12/30 03:46:16;;;;;;;2.30;1.40;;;23.60;43.10;;;;;;6276549;27;81120;-59
2023/12/30 03:49:16;;;;;;;1.45;1.30;;;23.60;43.10;;;;;;6258402;27;82929;-48
2023/12/30 03:52:17;;;;;;;1.92;1.52;;;23.60;43.20;;;;;;6276154;27;81689;-50
2023/12/30 03:55:17;;;;;;;1.58;1.35;;;23.50;43.10;;;;;;6275686;27;82697;-49
2023/12/30 03:58:18;;;;;;;1.58;1.48;;;23.50;43.00;;;;;;6257016;27;81917;-50
2023/12/30 04:01:18;;;;;;;1.95;1.60;;;23.50;43.00;;;;;;6275506;27;81553;-50
2023/12/30 04:04:20;;;;;;;1.63;1.38;;;23.60;43.00;;;;;;6257198;27;82981;-51
2023/12/30 04:07:21;;;;;;;1.65;1.38;;;23.50;43.10;;;;;;6276795;27;80884;-47
2023/12/30 04:10:21;;;;;;;1.63;1.50;;;23.50;43.10;;;;;;6276726;27;80836;-48
2023/12/30 04:13:22;;;;;;;1.80;1.30;;;23.50;43.20;;;;;;6274651;27;80460;-46
2023/12/30 04:16:22;;;;;;;1.92;1.50;;;23.50;43.20;;;;;;6257454;27;83285;-46
2023/12/30 04:19:23;;;;;;;1.67;1.40;;;23.50;43.20;;;;;;6257357;27;83208;-47
2023/12/30 04:22:25;;;;;;;1.63;1.30;;;23.50;43.30;;;;;;6273474;27;80857;-47
2023/12/30 04:25:26;;;;;;;2.75;1.67;;;23.50;43.20;;;;;;6256923;27;83294;-48
2023/12/30 04:28:26;;;;;;;1.60;1.20;;;23.50;43.30;;;;;;6275231;27;80628;-48
2023/12/30 04:31:27;;;;;;;1.25;0.98;;;23.50;43.40;;;;;;6276896;27;80996;-49
2023/12/30 04:34:27;;;;;;;1.50;1.40;;;23.50;43.50;;;;;;6275936;27;80379;-50
2023/12/30 04:37:28;;;;;;;1.48;1.23;;;23.50;43.50;;;;;;6274864;27;80564;-49
2023/12/30 04:40:28;;;;;;;1.48;1.15;;;23.50;43.50;;;;;;6274477;27;80424;-46
2023/12/30 04:43:29;;;;;;;2.20;1.52;;;23.50;43.50;;;;;;6275077;27;80411;-61
2023/12/30 04:46:29;;;;;;;1.15;1.05;;;23.50;43.50;;;;;;6255295;27;83628;-53
2023/12/30 04:49:30;;;;;;;2.08;1.35;;;23.50;43.50;;;;;;6258133;27;81687;-52
2023/12/30 04:52:31;;;;;;;1.65;1.27;;;23.50;44.00;;;;;;6254290;27;82293;-47
2023/12/30 04:55:31;;;;;;;1.30;1.20;;;23.50;43.40;;;;;;6275000;27;82428;-46
2023/12/30 04:58:32;;;;;;;1.73;1.40;;;23.50;43.30;;;;;;6274456;27;80753;-51
2023/12/30 05:01:32;;;;;;;1.25;1.10;;;23.50;43.40;;;;;;6256794;27;83197;-51
2023/12/30 05:04:33;;;;;;;1.52;1.08;;;23.50;43.30;;;;;;6256672;27;83197;-47
2023/12/30 05:07:33;;;;;;;1.77;1.40;;;23.50;43.30;;;;;;6256371;27;83258;-48
2023/12/30 05:10:34;;;;;;;1.92;1.25;;;23.50;43.30;;;;;;6274677;27;80485;-53
2023/12/30 05:13:34;;;;;;;1.88;1.27;;;23.50;43.30;;;;;;6275063;27;80483;-48
2023/12/30 05:16:35;;;;;;;1.02;0.95;;;23.50;43.30;;;;;;6275403;27;82178;-47
2023/12/30 05:19:35;;;;;;;2.08;1.48;;;23.50;43.40;;;;;;6268366;27;82042;-48
2023/12/30 05:22:36;;;;;;;1.70;1.33;;;23.50;43.30;;;;;;6274469;27;80343;-59
2023/12/30 05:25:36;;;;;;;4.22;1.30;;;23.50;43.40;;;;;;6255792;27;80462;-59
2023/12/30 05:28:37;;;;;;;1.30;1.20;;;23.50;43.30;;;;;;6274618;27;80997;-59
2023/12/30 05:31:37;;;;;;;2.05;1.10;;;23.60;43.40;;;;;;6274059;27;81821;-59
2023/12/30 05:34:38;;;;;;;1.33;1.17;;;23.50;43.40;;;;;;6279374;27;80480;-58
2023/12/30 05:37:40;;;;;;;1.35;1.15;;;23.50;43.40;;;;;;6278769;27;82490;-58
2023/12/30 05:40:40;;;;;;;7.65;1.27;;;23.50;43.50;;;;;;6278916;27;80501;-58
2023/12/30 05:43:41;;;;;;;3.35;1.30;;;23.50;43.50;;;;;;6277976;27;82658;-57
2023/12/30 05:46:42;;;;;;;1.90;1.23;;;23.50;43.60;;;;;;6277261;27;80948;-58
2023/12/30 05:49:42;;;;;;;1.58;1.48;;;23.50;43.60;;;;;;6276841;27;84247;-57
2023/12/30 05:52:43;;;;;;;4.13;1.30;;;23.50;44.20;;;;;;6279643;27;80498;-56
2023/12/30 05:55:43;;;;;;;1.52;1.13;;;23.50;43.70;;;;;;6278127;27;80461;-58
2023/12/30 05:58:44;;;;;;;2.50;1.35;;;23.50;43.80;;;;;;6278111;27;81463;-48
2023/12/30 06:01:45;;;;;;;1.67;1.08;;;23.50;43.70;;;;;;6278050;27;80613;-47
2023/12/30 06:04:45;;;;;;;1.25;1.15;;;23.50;43.60;;;;;;6278823;27;80681;-50
2023/12/30 06:07:46;;;;;;;1.95;1.40;;;23.50;43.70;;;;;;6278495;27;80477;-49
2023/12/30 06:10:51;;;;;;;1.67;1.30;;;23.50;43.60;;;;;;6278074;27;80793;-49
2023/12/30 06:13:51;;;;;;;1.40;1.20;;;23.50;43.70;;;;;;6272329;27;80527;-48
2023/12/30 06:16:52;;;;;;;2.85;1.10;;;23.50;44.00;;;;;;6249948;27;84725;-58
2023/12/30 06:19:52;;;;;;;1.17;1.08;;;23.50;43.80;;;;;;6264922;27;80695;-59
2023/12/30 06:22:53;;;;;;;1.50;0.95;;;23.50;44.00;;;;;;6265655;27;80976;-58
2023/12/30 06:25:53;;;;;;;2.28;1.27;;;23.50;44.00;;;;;;6272268;27;80461;-59
2023/12/30 06:28:54;;;;;;;1.30;1.00;;;23.50;44.20;;;;;;6269744;27;80571;-59
2023/12/30 06:31:54;;;;;;;1.48;1.27;;;23.50;44.50;;;;;;6273018;27;82726;-59
2023/12/30 06:34:55;;;;;;;1.45;1.20;;;23.50;44.20;;;;;;6275402;27;80129;-49
2023/12/30 06:37:55;;;;;;;2.28;1.30;;;23.50;44.20;;;;;;6276513;27;80733;-48
2023/12/30 06:40:56;;;;;;;1.20;1.10;;;23.60;44.30;;;;;;6276273;27;80634;-50
2023/12/30 06:43:56;;;;;;;4.20;1.40;;;23.50;44.50;;;;;;6267390;27;80847;-51
2023/12/30 06:46:57;;;;;;;1.80;0.93;;;23.50;44.00;;;;;;6269066;27;80997;-49
2023/12/30 06:49:57;;;;;;;1.13;1.00;;;23.50;44.20;;;;;;6273625;27;82829;-48
2023/12/30 06:52:58;;;;;;;2.95;1.30;;;23.50;44.90;;;;;;6275246;27;81900;-48
2023/12/30 06:55:59;;;;;;;4.18;1.35;;;23.50;44.90;;;;;;6271547;27;85150;-49
2023/12/30 06:58:59;;;;;;;2.47;1.40;;;23.60;44.60;;;;;;6274261;27;80502;-49
2023/12/30 07:02:00;;;;;;;4.47;1.50;;;23.60;45.20;;;;;;6273313;27;81362;-50
2023/12/30 07:05:00;;;;;;;1.70;1.15;;;23.60;45.20;;;;;;6274250;27;81223;-52
2023/12/30 07:08:01;;;;;;;4.68;1.50;;;23.60;45.40;;;;;;6275406;27;80754;-51
2023/12/30 07:11:01;;;;;;;5.45;1.70;;;23.60;45.50;;;;;;6266874;27;82653;-53
2023/12/30 07:14:02;;;;;;;10.43;1.50;;;23.60;45.90;;;;;;6256452;27;81565;-57
2023/12/30 07:17:02;;;;;;;1.73;1.25;;;23.70;46.10;;;;;;6275657;27;81210;-56
2023/12/30 07:20:03;;;;;;;2.25;1.33;;;23.70;46.10;;;;;;6272708;27;81471;-56
2023/12/30 07:23:05;;;;;;;4.80;1.25;;;23.70;46.00;;;;;;6275228;27;81065;-58
2023/12/30 07:26:07;;;;;;;4.95;0.98;;;23.80;46.10;;;;;;6275803;27;80774;-55
2023/12/30 07:29:07;;;;;;;6.13;1.13;;;23.80;46.60;;;;;;6275495;27;80681;-59
2023/12/30 07:32:08;;;;;;;2.70;1.30;;;23.80;46.50;;;;;;6275323;27;82826;-60
2023/12/30 07:35:08;;;;;;;3.42;1.60;;;23.80;46.50;;;;;;6275177;27;81074;-60
2023/12/30 07:38:09;;;;;;;3.88;1.13;;;23.80;47.00;;;;;;6276132;27;80586;-58
2023/12/30 07:41:14;;;;;;;1.30;1.02;;;23.90;46.80;;;;;;6276302;27;80546;-59
2023/12/30 07:44:14;;;;;;;1.67;1.00;;;23.90;47.00;;;;;;6276533;27;80577;-58
2023/12/30 07:47:15;;;;;;;1.88;1.20;;;23.90;47.20;;;;;;6276377;27;80743;-58
2023/12/30 07:50:15;;;;;;;1.92;1.27;;;23.90;47.20;;;;;;6276528;27;80500;-60
2023/12/30 07:53:16;;;;;;;8.35;1.50;;;24.00;47.10;;;;;;6275591;27;82843;-56
2023/12/30 07:56:16;;;;;;;1.80;1.40;;;23.90;46.90;;;;;;6275198;27;80666;-56
2023/12/30 07:59:16;;;;;;;1.67;0.90;;;24.00;47.00;;;;;;6276304;27;81302;-56
2023/12/30 08:02:17;;;;;;;13.45;1.80;;;23.90;47.00;;;;;;6275959;27;80290;-55
2023/12/30 08:05:18;;;;;;;5.63;1.17;;;24.00;47.00;;;;;;6275168;27;80265;-54
2023/12/30 08:08:19;;;;;;;1.88;1.15;;;24.00;47.20;;;;;;6274527;27;80860;-52
2023/12/30 08:11:20;;;;;;;4.65;1.27;;;24.00;47.30;;;;;;6275958;27;80639;-48
2023/12/30 08:14:20;;;;;;;5.90;1.48;;;24.00;47.20;;;;;;6275936;27;81968;-57
2023/12/30 08:17:21;;;;;;;4.03;1.50;;;24.10;47.20;;;;;;6272316;27;80999;-56
2023/12/30 08:20:21;;;;;;;5.78;1.58;;;24.00;47.20;;;;;;6271375;27;80501;-54
2023/12/30 08:23:22;;;;;;;3.13;1.00;;;24.00;47.20;;;;;;6272276;27;85405;-55
2023/12/30 08:26:22;;;;;;;4.45;1.20;;;24.00;47.20;;;;;;6268142;27;80859;-54
2023/12/30 08:29:23;;;;;;;4.40;1.52;;;24.00;47.30;;;;;;6270146;27;82216;-57
2023/12/30 08:32:23;;;;;;;3.78;1.50;;;24.00;47.30;;;;;;6269390;27;83059;-57
2023/12/30 08:35:23;;;;;;;8.43;1.60;;;24.00;47.40;;;;;;6270582;27;85078;-58
2023/12/30 08:38:24;;;;;;;8.65;1.60;;;24.00;47.30;;;;;;6269787;27;80651;-55
2023/12/30 08:41:27;;;;;;;22.33;2.78;;;24.10;46.80;;;;;;6274352;27;80372;-52
2023/12/30 08:44:28;;;;;;;2.75;1.42;;;24.10;46.70;;;;;;6268072;27;81095;-56
2023/12/30 08:47:31;;;;;;;5.07;1.58;;;24.20;47.10;;;;;;6272235;27;81279;-54
2023/12/30 08:50:32;;;;;;;5.53;1.48;;;24.30;47.30;;;;;;6272619;27;80405;-55
2023/12/30 08:53:32;;;;;;;4.15;1.17;;;24.40;46.90;;;;;;6271814;27;80781;-54
2023/12/30 08:56:33;;;;;;;3.30;1.33;;;24.40;46.70;;;;;;6270695;27;82672;-55
2023/12/30 08:59:33;;;;;;;4.82;0.98;;;24.50;46.90;;;;;;6271922;27;80692;-55
2023/12/30 09:02:34;;;;;;;2.13;1.30;;;24.60;46.60;;;;;;6273686;27;80706;-54
2023/12/30 09:05:34;;;;;;;24.88;7.38;;;24.60;46.20;;;;;;6269191;27;84452;-56
2023/12/30 09:08:35;;;;;;;135.40;59.45;;;24.60;43.60;;;;;;6272607;27;80673;-51
2023/12/30 09:11:39;;;;;;;170.75;78.38;;;24.60;42.50;;;;;;6267776;27;86817;-54
2023/12/30 09:14:39;;;;;;;203.68;92.35;;;24.50;41.80;;;;;;6269909;27;88123;-48
2023/12/30 09:17:39;;;;;;;232.57;103.68;;;24.60;40.90;;;;;;6269173;27;84091;-49
2023/12/30 09:20:40;;;;;;;235.32;106.38;;;24.60;39.80;;;;;;6266715;27;85566;-49
2023/12/30 09:23:40;;;;;;;284.02;132.85;;;24.60;39.50;;;;;;6265017;27;88636;-53
2023/12/30 09:26:41;;;;;;;302.27;132.10;;;24.70;39.30;;;;;;6261633;27;86725;-58
2023/12/30 09:29:41;;;;;;;372.65;162.68;;;24.70;39.10;;;;;;6262434;27;86879;-50
2023/12/30 09:32:42;;;;;;;451.20;197.63;;;24.80;39.40;;;;;;6265393;27;86181;-57
2023/12/30 09:35:42;;;;;;;397.95;162.02;;;24.80;39.50;;;;;;6264607;27;86271;-57
2023/12/30 09:38:43;;;;;;;312.98;126.43;;;24.80;39.30;;;;;;6263159;27;85580;-54
2023/12/30 09:41:43;;;;;;;195.75;89.07;;;24.80;39.00;;;;;;6263535;27;86308;-51
2023/12/30 09:44:44;;;;;;;187.07;79.63;;;24.80;38.40;;;;;;6268607;27;85359;-49
2023/12/30 09:47:45;;;;;;;158.10;69.20;;;24.90;39.50;;;;;;6268691;27;83625;-49
2023/12/30 09:50:46;;;;;;;120.85;55.35;;;24.90;38.70;;;;;;6268957;27;83488;-48
2023/12/30 09:53:46;;;;;;;107.28;44.75;;;25.00;38.50;;;;;;6268741;27;84771;-51
2023/12/30 09:56:47;;;;;;;96.00;41.85;;;25.00;37.90;;;;;;6269572;27;83613;-57
2023/12/30 09:59:47;;;;;;;72.90;32.40;;;25.10;38.40;;;;;;6268889;27;83158;-54
2023/12/30 10:02:48;;;;;;;55.45;23.63;;;25.10;38.00;;;;;;6268209;27;83482;-58
2023/12/30 10:05:49;;;;;;;35.83;14.95;;;25.10;37.50;;;;;;6268275;27;83498;-52
2023/12/30 10:08:49;;;;;;;24.35;11.23;;;25.20;36.80;;;;;;6269109;27;83879;-53
2023/12/30 10:11:50;;;;;;;20.30;9.13;;;25.20;36.80;;;;;;6258538;27;83580;-56
2023/12/30 10:14:50;;;;;;;14.18;6.28;;;25.10;36.00;;;;;;6268311;27;82426;-58
2023/12/30 10:17:51;;;;;;;14.50;6.65;;;25.10;36.10;;;;;;6273998;27;81017;-58
2023/12/30 10:20:51;;;;;;;13.10;5.45;;;25.20;36.00;;;;;;6275111;27;81010;-58
2023/12/30 10:23:53;;;;;;;9.55;4.18;;;25.20;35.70;;;;;;6272203;27;82185;-57
2023/12/30 10:26:58;;;;;;;7.68;3.17;;;25.30;35.70;;;;;;6273063;27;80414;-56
2023/12/30 10:29:59;;;;;;;5.82;2.42;;;25.30;35.20;;;;;;6277118;27;80895;-58
2023/12/30 10:32:59;;;;;;;8.60;3.10;;;25.30;35.50;;;;;;6276164;27;80364;-50
2023/12/30 10:36:00;;;;;;;6.53;2.38;;;25.30;35.30;;;;;;6277247;27;80217;-50
2023/12/30 10:39:01;;;;;;;5.03;2.55;;;25.40;35.40;;;;;;6275819;27;81417;-54
2023/12/30 10:42:01;;;;;;;4.57;1.95;;;25.40;35.00;;;;;;6275818;27;81230;-52
2023/12/30 10:45:01;;;;;;;3.50;2.15;;;25.50;35.00;;;;;;6268691;27;80514;-53
2023/12/30 10:48:02;;;;;;;2.17;1.80;;;25.50;35.00;;;;;;6276196;27;81970;-52
2023/12/30 10:51:02;;;;;;;4.10;2.00;;;25.50;35.10;;;;;;6277311;27;80268;-61
2023/12/30 10:54:03;;;;;;;7.93;3.00;;;25.60;35.10;;;;;;6275580;27;80477;-60
2023/12/30 10:57:04;;;;;;;5.57;2.30;;;25.60;35.20;;;;;;6270723;27;81131;-60
2023/12/30 11:00:09;;;;;;;8.38;2.00;;;25.60;35.00;;;;;;6278106;27;80561;-59
2023/12/30 11:03:09;;;;;;;7.05;1.92;;;25.50;35.30;;;;;;6271346;27;82517;-59
2023/12/30 11:06:10;;;;;;;2.97;1.42;;;25.60;35.20;;;;;;6277381;27;81015;-61
2023/12/30 11:09:11;;;;;;;11.30;1.70;;;25.50;35.20;;;;;;6277590;27;80457;-60
2023/12/30 11:12:11;;;;;;;2.92;1.65;;;25.60;34.90;;;;;;6277009;27;81626;-59
2023/12/30 11:15:11;;;;;;;4.45;2.05;;;25.60;35.30;;;;;;6278175;27;81279;-60
2023/12/30 11:18:12;;;;;;;5.47;1.98;;;25.60;35.60;;;;;;6277411;27;81092;-61
2023/12/30 11:21:13;;;;;;;3.13;1.38;;;25.60;35.70;;;;;;6276104;27;80371;-61
2023/12/30 11:24:13;;;;;;;1.90;1.55;;;25.50;35.30;;;;;;6271856;27;80587;-56
2023/12/30 11:27:14;;;;;;;2.08;1.63;;;25.30;35.20;;;;;;6276939;27;83632;-59
2023/12/30 11:30:14;;;;;;;1.73;1.15;;;25.10;35.40;;;;;;6276247;27;81233;-60
2023/12/30 11:33:15;;;;;;;6.75;1.65;;;24.90;35.40;;;;;;6277601;27;80314;-59
2023/12/30 11:36:15;;;;;;;7.47;1.45;;;24.80;35.80;;;;;;6276782;27;81226;-58
2023/12/30 11:39:16;;;;;;;3.58;1.40;;;24.70;36.20;;;;;;6277001;27;82096;-58
2023/12/30 11:42:16;;;;;;;5.95;1.88;;;24.60;36.30;;;;;;6257592;27;83125;-59
2023/12/30 11:45:17;;;;;;;11.60;1.92;;;24.50;36.50;;;;;;6276826;27;80905;-59
2023/12/30 11:48:17;;;;;;;2.97;1.42;;;24.40;36.40;;;;;;6276610;27;80356;-60
2023/12/30 11:51:18;;;;;;;3.40;1.58;;;24.30;36.30;;;;;;6274280;27;80869;-67
2023/12/30 11:54:19;;;;;;;3.00;1.40;;;24.20;36.60;;;;;;6276170;27;79945;-59
2023/12/30 11:57:19;;;;;;;8.20;1.80;;;24.10;36.90;;;;;;6276938;27;81477;-60
2023/12/30 12:00:21;;;;;;;4.47;1.83;;;24.00;36.90;;;;;;6257186;27;81990;-55
2023/12/30 12:03:21;;;;;;;3.88;1.60;;;24.00;36.90;;;;;;6276465;27;81912;-57
2023/12/30 12:06:22;;;;;;;2.83;1.63;;;23.90;37.30;;;;;;6276112;27;80781;-57
2023/12/30 12:09:22;;;;;;;3.65;1.83;;;23.90;38.10;;;;;;6275486;27;81543;-59
2023/12/30 12:12:23;;;;;;;4.60;1.70;;;23.80;38.80;;;;;;6270691;27;80419;-59
2023/12/30 12:15:23;;;;;;;2.65;1.70;;;23.70;39.10;;;;;;6273524;27;81341;-57
2023/12/30 12:18:24;;;;;;;2.25;1.75;;;23.60;39.20;;;;;;6264036;27;87594;-54
2023/12/30 12:21:24;;;;;;;3.67;2.28;;;23.60;39.50;;;;;;6275008;27;80655;-54
2023/12/30 12:24:25;;;;;;;3.75;2.33;;;23.50;39.60;;;;;;6276615;27;80460;-55
2023/12/30 12:27:25;;;;;;;4.18;2.28;;;23.40;39.80;;;;;;6275080;27;83479;-57
2023/12/30 12:30:26;;;;;;;5.75;2.20;;;23.40;39.90;;;;;;6274655;27;80694;-54
2023/12/30 12:33:26;;;;;;;3.28;1.88;;;23.30;39.90;;;;;;6274815;27;80951;-57
2023/12/30 12:36:27;;;;;;;2.20;1.60;;;23.30;40.00;;;;;;6265821;27;84926;-55
2023/12/30 12:39:27;;;;;;;9.80;1.52;;;23.30;40.10;;;;;;6269290;27;86401;-51
2023/12/30 12:42:28;;;;;;;2.63;1.65;;;23.20;40.20;;;;;;6272262;27;81463;-54
2023/12/30 12:45:29;;;;;;;4.22;1.40;;;23.30;40.50;;;;;;6274109;27;80649;-59
2023/12/30 12:48:29;;;;;;;2.03;1.42;;;23.30;40.80;;;;;;6272291;27;81094;-60
2023/12/30 12:51:32;;;;;;;5.88;2.15;;;23.30;41.00;;;;;;6274907;27;80365;-60
2023/12/30 12:54:32;;;;;;;2.58;1.60;;;23.30;41.70;;;;;;6274729;27;80606;-59
2023/12/30 12:57:33;;;;;;;1.65;1.23;;;23.30;41.20;;;;;;6275638;27;80300;-59
2023/12/30 13:00:33;;;;;;;2.60;1.20;;;23.20;41.20;;;;;;6262704;27;81130;-59
2023/12/30 13:03:34;;;;;;;3.92;1.05;;;23.30;41.30;;;;;;6272868;27;80882;-60
2023/12/30 13:06:34;;;;;;;10.32;1.25;;;23.20;41.10;;;;;;6274160;27;80563;-58
2023/12/30 13:09:46;;;;;;;2.58;0.90;;;23.20;41.00;;;;;;6268247;27;80651;-59
2023/12/30 13:12:47;;;;;;;1.70;1.05;;;23.20;41.00;;;;;;6267969;27;81359;-57
2023/12/30 13:15:48;;;;;;;2.95;1.30;;;23.20;41.20;;;;;;6273437;27;80830;-59
2023/12/30 13:18:48;;;;;;;7.55;1.10;;;23.20;41.20;;;;;;6272756;27;80860;-53
2023/12/30 13:21:49;;;;;;;2.22;0.90;;;23.20;41.20;;;;;;6272889;27;80549;-51
2023/12/30 13:24:51;;;;;;;2.15;0.98;;;23.30;41.40;;;;;;6267921;27;80407;-51
2023/12/30 13:27:51;;;;;;;6.65;1.85;;;23.30;42.00;;;;;;6251320;27;80737;-53
2023/12/30 13:30:52;;;;;;;8.90;2.58;;;23.30;42.50;;;;;;6256012;27;82463;-50
2023/12/30 13:33:54;;;;;;;5.93;2.25;;;23.30;47.30;;;;;;6259948;27;82251;-51
2023/12/30 13:36:56;;;;;;;5.03;1.58;;;23.40;48.60;;;;;;6257217;27;80916;-58
2023/12/30 13:40:00;;;;;;;4.13;1.67;;;23.60;48.20;;;;;;6259099;27;81129;-57
2023/12/30 13:43:07;;;;;;;3.33;1.25;;;23.70;47.10;;;;;;6257994;27;80624;-57
2023/12/30 13:46:41;;;;;;;5.78;1.63;;;23.70;46.80;;;;;;6254468;27;81297;-56
2023/12/30 13:53:01;;;;;;;6.57;1.77;;;23.90;47.10;;;;;;6259697;27;85545;-58
2023/12/30 13:56:05;;;;;;;12.13;1.55;;;24.00;46.80;;;;;;6263000;27;81498;-62
2023/12/30 13:59:09;;;;;;;7.00;1.85;;;24.00;46.70;;;;;;6262808;27;81486;-60
2023/12/30 14:02:09;;;;;;;12.80;3.50;;;24.00;46.60;;;;;;6252202;27;83396;-60
2023/12/30 14:05:18;;;;;;;14.88;3.42;;;24.10;47.00;;;;;;6263066;27;81213;-56
2023/12/30 14:08:30;;;;;;;16.70;3.75;;;24.10;46.80;;;;;;6272897;27;80976;-60
2023/12/30 14:11:34;;;;;;;13.35;3.67;;;24.20;47.30;;;;;;6270933;27;81289;-60
2023/12/30 14:14:41;;;;;;;14.27;4.30;;;24.20;47.60;;;;;;6271506;27;80555;-56
2023/12/30 14:17:42;;;;;;;15.90;4.03;;;24.30;47.30;;;;;;6276603;27;81981;-57
2023/12/30 14:20:43;;;;;;;15.02;4.03;;;24.30;47.30;;;;;;6276526;27;80558;-55
2023/12/30 14:23:43;;;;;;;16.30;4.57;;;24.30;46.80;;;;;;6277162;27;80461;-56
2023/12/30 14:26:44;;;;;;;16.60;4.18;;;24.30;46.90;;;;;;6274882;27;80672;-59
2023/12/30 14:29:46;;;;;;;16.38;4.25;;;24.30;46.60;;;;;;6274589;27;80911;-57
2023/12/30 14:32:47;;;;;;;15.18;4.47;;;24.30;46.50;;;;;;6275400;27;81283;-58
2023/12/30 14:35:47;;;;;;;12.35;4.22;;;24.40;46.60;;;;;;6248392;27;80939;-58
2023/12/30 14:38:48;;;;;;;12.82;4.60;;;24.40;46.50;;;;;;6259762;27;83118;-59
2023/12/30 14:41:48;;;;;;;10.63;3.35;;;24.40;46.40;;;;;;6271081;27;82004;-59
2023/12/30 14:44:49;;;;;;;14.40;4.40;;;24.40;46.60;;;;;;6270695;27;81445;-56
2023/12/30 14:47:49;;;;;;;10.57;3.53;;;24.40;46.50;;;;;;6264804;27;81798;-59
2023/12/30 14:50:50;;;;;;;10.73;3.17;;;24.50;46.60;;;;;;6272668;27;80447;-58
2023/12/30 14:53:50;;;;;;;10.27;3.28;;;24.40;46.50;;;;;;6272250;27;80545;-58
2023/12/30 14:56:51;;;;;;;13.80;3.58;;;24.50;46.40;;;;;;6270859;27;80797;-59
2023/12/30 14:59:52;;;;;;;8.07;3.05;;;24.50;46.50;;;;;;6271799;27;83703;-58
2023/12/30 15:02:53;;;;;;;11.38;3.40;;;24.40;46.30;;;;;;6269915;27;85900;-59
2023/12/30 15:05:53;;;;;;;9.70;2.85;;;24.50;46.40;;;;;;6270921;27;80754;-59
2023/12/30 15:08:54;;;;;;;10.80;3.72;;;24.50;46.30;;;;;;6272876;27;81092;-57
2023/12/30 15:11:54;;;;;;;11.73;2.85;;;24.50;46.10;;;;;;6275890;27;80586;-57
2023/12/30 15:14:55;;;;;;;11.10;3.28;;;24.50;46.60;;;;;;6276726;27;80972;-59
2023/12/30 15:17:55;;;;;;;12.00;3.75;;;24.50;46.80;;;;;;6276094;27;81955;-59
2023/12/30 15:20:56;;;;;;;8.15;2.50;;;24.60;46.80;;;;;;6273608;27;80535;-59
2023/12/30 15:23:57;;;;;;;9.18;2.70;;;24.60;46.60;;;;;;6274023;27;80982;-60
2023/12/30 15:26:58;;;;;;;5.68;2.33;;;24.60;46.50;;;;;;6275357;27;80577;-60
2023/12/30 15:29:58;;;;;;;7.60;2.17;;;24.60;46.70;;;;;;6273311;27;80733;-55
2023/12/30 15:32:58;;;;;;;8.90;2.45;;;24.70;46.50;;;;;;6273731;27;81163;-57
2023/12/30 15:36:02;;;;;;;8.27;2.88;;;24.60;47.20;;;;;;6275146;27;80240;-56
2023/12/30 15:39:04;;;;;;;4.20;2.10;;;24.60;47.10;;;;;;6274656;27;81130;-58